createdAt,value
2023-10-26T00:00:51.849Z,13.65
2023-10-26T00:04:53.418Z,13.63
2023-10-26T00:08:55.118Z,13.65
2023-10-26T00:12:56.775Z,13.65
2023-10-26T00:16:58.400Z,13.65
2023-10-26T00:21:01.309Z,13.66
2023-10-26T00:25:03.041Z,13.65
2023-10-26T00:29:04.766Z,13.66
2023-10-26T00:33:06.394Z,13.65
2023-10-26T00:37:08.118Z,13.66
2023-10-26T00:41:09.813Z,13.66
2023-10-26T00:45:11.409Z,13.66
2023-10-26T00:49:16.605Z,13.68
2023-10-26T00:53:20.759Z,13.66
2023-10-26T00:57:24.936Z,13.66
2023-10-26T01:01:27.748Z,13.65
2023-10-26T01:05:29.335Z,13.65
2023-10-26T01:09:31.077Z,13.65
2023-10-26T01:13:34.342Z,13.65
2023-10-26T01:17:36.736Z,13.63
2023-10-26T01:21:54.608Z,13.63
2023-10-26T01:25:57.012Z,13.62
2023-10-26T01:29:59.668Z,13.61
2023-10-26T01:34:01.360Z,13.63
2023-10-26T01:38:03.459Z,13.61
2023-10-26T01:42:07.279Z,13.61
2023-10-26T01:46:08.866Z,13.55
2023-10-26T01:50:11.075Z,13.55
2023-10-26T01:54:13.002Z,13.57
2023-10-26T01:58:14.755Z,13.53
2023-10-26T02:02:16.357Z,13.48
2023-10-26T02:06:18.173Z,13.48
2023-10-26T02:10:19.984Z,13.48
2023-10-26T02:14:21.983Z,13.47
2023-10-26T02:18:23.651Z,13.46
2023-10-26T02:22:25.323Z,13.44
2023-10-26T02:26:27.015Z,13.43
2023-10-26T02:30:28.617Z,13.41
2023-10-26T02:34:30.305Z,13.38
2023-10-26T02:38:31.964Z,13.38
2023-10-26T02:42:34.400Z,13.38
2023-10-26T02:46:35.965Z,13.36
2023-10-26T02:50:37.580Z,13.38
2023-10-26T02:54:39.174Z,13.41
2023-10-26T02:58:40.899Z,13.39
2023-10-26T03:02:42.582Z,13.39
2023-10-26T03:06:44.317Z,13.39
2023-10-26T03:10:46.048Z,13.38
2023-10-26T03:14:47.719Z,13.38
2023-10-26T03:18:49.367Z,13.38
2023-10-26T03:22:50.975Z,13.36
2023-10-26T03:26:52.594Z,13.38
2023-10-26T03:30:54.515Z,13.38
2023-10-26T03:34:58.518Z,13.38
2023-10-26T03:39:00.219Z,13.38
2023-10-26T03:43:01.826Z,13.36
2023-10-26T03:47:03.628Z,13.35
2023-10-26T03:51:05.886Z,13.36
2023-10-26T03:55:07.804Z,13.35
2023-10-26T03:59:09.435Z,13.35
2023-10-26T04:03:11.145Z,13.35
2023-10-26T04:07:12.816Z,13.35
2023-10-26T04:11:18.456Z,13.36
2023-10-26T04:15:20.194Z,13.35
2023-10-26T04:19:21.834Z,13.31
2023-10-26T04:23:23.518Z,13.32
2023-10-26T04:27:25.936Z,13.32
2023-10-26T04:31:27.627Z,13.32
2023-10-26T04:35:29.452Z,13.32
2023-10-26T04:39:31.015Z,13.35
2023-10-26T04:43:32.905Z,13.35
2023-10-26T04:47:34.563Z,13.36
2023-10-26T04:51:36.333Z,13.31
2023-10-26T04:55:37.979Z,13.32
2023-10-26T04:59:39.516Z,13.32
2023-10-26T05:03:41.509Z,13.32
2023-10-26T05:07:43.703Z,13.31
2023-10-26T05:11:45.356Z,13.28
2023-10-26T05:15:47.115Z,13.28
2023-10-26T05:19:48.862Z,13.27
2023-10-26T05:23:50.515Z,13.25
2023-10-26T05:27:54.277Z,13.24
2023-10-26T05:31:56.604Z,13.19
2023-10-26T05:35:58.322Z,13.14
2023-10-26T05:39:59.910Z,13.14
2023-10-26T05:44:01.558Z,13.12
2023-10-26T05:48:05.000Z,13.10
2023-10-26T05:52:06.724Z,13.09
2023-10-26T05:56:08.557Z,13.06
2023-10-26T06:00:11.125Z,13.09
2023-10-26T06:04:15.364Z,13.09
2023-10-26T06:08:17.290Z,13.09
2023-10-26T06:12:18.977Z,13.07
2023-10-26T06:16:21.449Z,13.09
2023-10-26T06:20:28.726Z,13.10
2023-10-26T06:24:30.425Z,13.10
2023-10-26T06:28:32.132Z,13.09
2023-10-26T06:32:33.866Z,13.09
2023-10-26T06:36:35.581Z,13.09
2023-10-26T06:40:37.198Z,13.09
2023-10-26T06:44:40.424Z,13.09
2023-10-26T06:48:42.197Z,13.13
2023-10-26T06:52:44.344Z,13.13
2023-10-26T06:56:45.921Z,13.14
2023-10-26T07:00:52.608Z,13.17
2023-10-26T07:04:55.370Z,13.19
2023-10-26T07:08:57.102Z,13.21
2023-10-26T07:12:58.822Z,13.22
2023-10-26T07:17:00.482Z,13.24
2023-10-26T07:21:06.893Z,13.31
2023-10-26T07:25:08.901Z,13.38
2023-10-26T07:29:10.545Z,13.51
2023-10-26T07:33:12.269Z,13.59
2023-10-26T07:37:14.250Z,13.65
2023-10-26T07:41:15.892Z,13.71
2023-10-26T07:45:17.648Z,13.71
2023-10-26T07:49:19.449Z,13.71
2023-10-26T07:53:20.993Z,13.71
2023-10-26T07:57:22.669Z,13.81
2023-10-26T08:01:24.288Z,13.91
2023-10-26T08:05:26.419Z,13.94
2023-10-26T08:09:35.231Z,13.94
2023-10-26T08:13:37.275Z,14.04
2023-10-26T08:17:39.149Z,14.08
2023-10-26T08:21:41.590Z,14.21
2023-10-26T08:25:43.192Z,14.27
2023-10-26T08:29:44.835Z,14.30
2023-10-26T08:33:46.518Z,14.30
2023-10-26T08:37:48.318Z,14.34
2023-10-26T08:41:55.783Z,14.36
2023-10-26T08:46:00.207Z,14.39
2023-10-26T08:50:15.575Z,14.38
2023-10-26T08:54:18.510Z,14.35
2023-10-26T08:58:21.117Z,14.31
2023-10-26T09:02:22.869Z,14.24
2023-10-26T09:06:24.739Z,14.20
2023-10-26T09:10:31.385Z,14.16
2023-10-26T09:14:33.090Z,14.06
2023-10-26T09:18:35.183Z,13.99
2023-10-26T09:22:38.218Z,13.91
2023-10-26T09:26:40.900Z,13.90
2023-10-26T09:30:43.538Z,13.88
2023-10-26T09:34:47.140Z,13.87
2023-10-26T09:38:49.285Z,13.86
2023-10-26T09:42:51.606Z,13.83
2023-10-26T09:46:53.598Z,13.81
2023-10-26T09:50:55.781Z,13.75
2023-10-26T09:54:57.634Z,13.81
2023-10-26T09:59:01.188Z,13.94
2023-10-26T10:03:17.563Z,14.06
2023-10-26T10:07:39.801Z,14.16
2023-10-26T10:11:41.519Z,14.21
2023-10-26T10:15:44.289Z,14.24
2023-10-26T10:20:14.929Z,14.31
2023-10-26T10:24:38.916Z,14.36
2023-10-26T10:28:42.213Z,14.46
2023-10-26T10:32:44.299Z,14.54
2023-10-26T10:37:14.420Z,14.60
2023-10-26T10:41:17.123Z,14.59
2023-10-26T10:45:19.858Z,14.60
2023-10-26T10:49:25.053Z,14.64
2023-10-26T10:53:28.965Z,14.75
2023-10-26T10:57:30.709Z,14.74
2023-10-26T11:01:32.388Z,14.61
2023-10-26T11:05:38.948Z,14.53
2023-10-26T11:09:40.963Z,14.48
2023-10-26T11:13:42.759Z,14.52
2023-10-26T11:17:44.766Z,14.53
2023-10-26T11:21:46.841Z,14.57
2023-10-26T11:25:48.803Z,14.56
2023-10-26T11:30:06.453Z,14.54
2023-10-26T11:34:10.577Z,14.48
2023-10-26T11:38:12.214Z,14.49
2023-10-26T11:42:13.800Z,14.49
2023-10-26T11:46:15.650Z,14.52
2023-10-26T11:50:31.929Z,14.44
2023-10-26T11:54:33.654Z,14.57
2023-10-26T11:58:36.842Z,14.78
2023-10-26T12:02:38.583Z,14.94
2023-10-26T12:06:40.678Z,15.03
2023-10-26T12:10:42.585Z,15.15
2023-10-26T12:14:44.414Z,15.20
2023-10-26T12:18:46.094Z,15.28
2023-10-26T12:22:53.238Z,15.41
2023-10-26T12:26:57.866Z,15.41
2023-10-26T12:30:59.543Z,15.48
2023-10-26T12:35:01.187Z,15.48
2023-10-26T12:39:03.973Z,15.53
2023-10-26T12:43:05.597Z,15.62
2023-10-26T12:47:07.847Z,15.74
2023-10-26T12:51:09.535Z,15.81
2023-10-26T12:55:11.248Z,15.89
2023-10-26T12:59:12.918Z,16.06
2023-10-26T13:03:14.558Z,16.18
2023-10-26T13:07:16.189Z,16.25
2023-10-26T13:11:17.932Z,16.18
2023-10-26T13:15:21.233Z,16.25
2023-10-26T13:19:23.855Z,16.27
2023-10-26T13:23:25.481Z,16.22
2023-10-26T13:27:27.312Z,16.16
2023-10-26T13:31:28.929Z,16.08
2023-10-26T13:35:31.366Z,16.06
2023-10-26T13:39:33.116Z,16.06
2023-10-26T13:43:35.080Z,15.99
2023-10-26T13:47:36.716Z,16.01
2023-10-26T13:51:38.571Z,16.10
2023-10-26T13:55:40.202Z,16.17
2023-10-26T13:59:42.405Z,16.18
2023-10-26T14:03:44.069Z,16.13
2023-10-26T14:07:47.837Z,16.14
2023-10-26T14:11:49.453Z,16.16
2023-10-26T14:15:51.008Z,16.18
2023-10-26T14:19:52.708Z,16.16
2023-10-26T14:23:54.338Z,16.14
2023-10-26T14:27:58.138Z,16.14
2023-10-26T14:31:59.833Z,16.11
2023-10-26T14:36:01.530Z,16.07
2023-10-26T14:40:03.423Z,16.04
2023-10-26T14:44:05.277Z,16.03
2023-10-26T14:48:06.911Z,16.01
2023-10-26T14:52:08.530Z,15.96
2023-10-26T14:56:10.201Z,15.89
2023-10-26T15:00:12.158Z,15.85
2023-10-26T15:04:13.749Z,15.78
2023-10-26T15:08:15.500Z,15.73
2023-10-26T15:12:17.131Z,15.67
2023-10-26T15:16:18.829Z,15.60
2023-10-26T15:20:20.660Z,15.55
2023-10-26T15:24:22.491Z,15.52
2023-10-26T15:28:24.341Z,15.51
2023-10-26T15:32:26.259Z,15.49
2023-10-26T15:36:27.923Z,15.46
2023-10-26T15:40:29.553Z,15.38
2023-10-26T15:44:32.244Z,15.34
2023-10-26T15:49:34.704Z,15.23
2023-10-26T15:52:58.569Z,15.18
2023-10-26T15:57:00.288Z,15.15
2023-10-26T16:01:04.231Z,15.12
2023-10-26T16:05:06.330Z,15.09
2023-10-26T16:09:07.896Z,15.05
2023-10-26T16:13:09.524Z,15.05
2023-10-26T16:17:11.132Z,14.94
2023-10-26T16:21:16.087Z,14.91
2023-10-26T16:25:17.771Z,14.86
2023-10-26T16:29:19.481Z,14.82
2023-10-26T16:33:21.026Z,14.80
2023-10-26T16:37:22.783Z,14.74
2023-10-26T16:41:25.068Z,14.72
2023-10-26T16:45:27.019Z,14.67
2023-10-26T16:49:28.773Z,14.63
2023-10-26T16:53:32.507Z,14.59
2023-10-26T16:57:34.490Z,14.56
2023-10-26T17:01:36.130Z,14.53
2023-10-26T17:05:37.939Z,14.49
2023-10-26T17:09:39.626Z,14.45
2023-10-26T17:13:41.297Z,14.44
2023-10-26T17:17:42.993Z,14.39
2023-10-26T17:21:44.573Z,14.38
2023-10-26T17:25:46.246Z,14.34
2023-10-26T17:29:48.524Z,14.31
2023-10-26T17:33:50.272Z,14.27
2023-10-26T17:37:53.285Z,14.24
2023-10-26T17:41:54.862Z,14.23
2023-10-26T17:45:58.128Z,14.19
2023-10-26T17:49:59.810Z,14.20
2023-10-26T17:54:05.231Z,14.19
2023-10-26T17:58:07.586Z,14.16
2023-10-26T18:02:09.274Z,14.13
2023-10-26T18:06:11.151Z,14.12
2023-10-26T18:10:12.802Z,14.09
2023-10-26T18:14:14.634Z,14.08
2023-10-26T18:18:16.331Z,14.06
2023-10-26T18:22:17.942Z,14.05
2023-10-26T18:26:21.036Z,14.02
2023-10-26T18:30:22.653Z,14.02
2023-10-26T18:34:24.422Z,14.01
2023-10-26T18:38:26.039Z,13.96
2023-10-26T18:42:27.696Z,13.93
2023-10-26T18:46:29.461Z,13.90
2023-10-26T18:50:31.110Z,13.86
2023-10-26T18:54:32.812Z,13.83
2023-10-26T18:58:34.726Z,13.80
2023-10-26T19:02:36.380Z,13.79
2023-10-26T19:06:40.616Z,13.79
2023-10-26T19:10:42.770Z,13.75
2023-10-26T19:14:44.492Z,13.71
2023-10-26T19:18:46.294Z,13.65
2023-10-26T19:22:49.290Z,13.63
2023-10-26T19:26:50.939Z,13.62
2023-10-26T19:30:56.517Z,13.61
2023-10-26T19:34:58.844Z,13.57
2023-10-26T19:39:00.466Z,13.54
2023-10-26T19:43:02.135Z,13.53
2023-10-26T19:47:04.232Z,13.53
2023-10-26T19:51:06.037Z,13.51
2023-10-26T19:55:08.483Z,13.48
2023-10-26T19:59:10.120Z,13.48
2023-10-26T20:03:11.734Z,13.48
2023-10-26T20:07:13.803Z,13.46
2023-10-26T20:11:15.409Z,13.47
2023-10-26T20:15:17.031Z,13.46
2023-10-26T20:19:19.030Z,13.43
2023-10-26T20:23:20.758Z,13.43
2023-10-26T20:27:22.319Z,13.39
2023-10-26T20:31:24.121Z,13.38
2023-10-26T20:35:25.906Z,13.36
2023-10-26T20:39:27.448Z,13.36
2023-10-26T20:43:29.179Z,13.36
2023-10-26T20:47:30.903Z,13.35
2023-10-26T20:51:34.748Z,13.35
2023-10-26T20:55:36.391Z,13.32
2023-10-26T20:59:40.050Z,13.35
2023-10-26T21:03:41.905Z,13.31
2023-10-26T21:07:43.887Z,13.31
2023-10-26T21:11:45.574Z,13.32
2023-10-26T21:15:47.950Z,13.31
2023-10-26T21:19:49.970Z,13.29
2023-10-26T21:23:51.557Z,13.28
2023-10-26T21:27:53.166Z,13.27
2023-10-26T21:31:54.907Z,13.25
2023-10-26T21:35:56.784Z,13.21
2023-10-26T21:39:58.847Z,13.19
2023-10-26T21:44:00.587Z,13.16
2023-10-26T21:48:02.225Z,13.16
2023-10-26T21:52:05.706Z,13.19
2023-10-26T21:56:07.536Z,13.14
2023-10-26T22:00:12.757Z,13.12
2023-10-26T22:04:22.095Z,13.10
2023-10-26T22:08:24.375Z,13.10
2023-10-26T22:12:26.322Z,13.07
2023-10-26T22:16:28.063Z,13.07
2023-10-26T22:20:29.793Z,13.06
2023-10-26T22:24:31.611Z,13.04
2023-10-26T22:28:33.393Z,13.01
2023-10-26T22:32:35.104Z,12.99
2023-10-26T22:36:37.552Z,12.98
2023-10-26T22:40:39.143Z,12.98
2023-10-26T22:44:40.784Z,12.98
2023-10-26T22:48:42.341Z,12.95
2023-10-26T22:52:43.977Z,12.96
2023-10-26T22:56:45.700Z,12.96
2023-10-26T23:00:47.346Z,12.96
2023-10-26T23:04:53.680Z,12.95
2023-10-26T23:08:56.287Z,12.96
2023-10-26T23:13:00.142Z,12.98
2023-10-26T23:17:01.815Z,12.95
2023-10-26T23:21:03.910Z,12.92
2023-10-26T23:25:06.035Z,12.91
2023-10-26T23:29:07.687Z,12.92
2023-10-26T23:33:09.266Z,12.92
2023-10-26T23:37:11.481Z,12.92
2023-10-26T23:41:13.942Z,12.92
2023-10-26T23:45:15.541Z,12.92
2023-10-26T23:49:17.113Z,12.91
2023-10-26T23:53:20.126Z,12.89
2023-10-26T23:57:21.752Z,12.89
